Time;durP1;ratioP1;P1;durP2;ratioP2;P2;SDS_P1;SDS_P2;PMS_P1;PMS_P2;Temp;Humidity;BMP_temperature;BMP_pressure;BME280_temperature;BME280_humidity;BME280_pressure;Samples;Min_cycle;Max_cycle;Signal;HPM_P1;HPM_P2
2024/02/14 00:00:09;;;;;;;12.00;7.23;;;;;;;8.69;50.28;97872.25;5034580;28;20183;-69
2024/02/14 00:02:36;;;;;;;9.57;6.87;;;;;;;8.66;50.37;97860.25;5033737;28;20519;-69
2024/02/14 00:05:02;;;;;;;9.00;6.53;;;;;;;8.69;49.93;97862.63;5030943;28;20523;-71
2024/02/14 00:07:28;;;;;;;14.00;6.30;;;;;;;8.62;50.86;97876.31;5038838;28;20906;-68
2024/02/14 00:09:54;;;;;;;8.97;6.20;;;;;;;8.64;50.85;97869.16;5031096;28;20411;-68
2024/02/14 00:12:19;;;;;;;9.13;5.77;;;;;;;8.66;50.99;97873.34;5031532;28;20549;-68
2024/02/14 00:14:45;;;;;;;13.03;6.10;;;;;;;8.74;50.13;97876.16;5015359;28;20226;-68
2024/02/14 00:17:11;;;;;;;9.57;5.20;;;;;;;8.79;50.42;97873.16;5034897;28;20509;-68
2024/02/14 00:19:36;;;;;;;12.27;6.73;;;;;;;8.63;50.50;97876.19;5031422;28;20207;-66
2024/02/14 00:22:02;;;;;;;8.40;5.90;;;;;;;8.65;50.50;97876.91;5030193;28;20573;-70
2024/02/14 00:24:29;;;;;;;12.23;6.63;;;;;;;8.67;50.65;97880.22;5030782;28;20653;-68
2024/02/14 00:26:55;;;;;;;13.13;6.10;;;;;;;8.62;50.37;97871.09;5036727;28;20183;-69
2024/02/14 00:29:21;;;;;;;10.43;5.40;;;;;;;8.71;51.19;97865.94;5035963;28;20430;-69
2024/02/14 00:31:46;;;;;;;9.67;5.00;;;;;;;8.64;51.28;97870.00;5040871;28;20824;-68
2024/02/14 00:34:12;;;;;;;7.37;4.53;;;;;;;8.67;51.05;97872.38;5029869;28;20206;-68
2024/02/14 00:36:37;;;;;;;7.17;5.07;;;;;;;8.80;50.94;97869.59;5030225;28;20180;-69
2024/02/14 00:39:03;;;;;;;9.03;5.17;;;;;;;8.95;51.29;97880.56;5030244;28;20940;-69
2024/02/14 00:41:29;;;;;;;9.40;4.77;;;;;;;8.98;50.75;97869.06;5032233;28;20266;-70
2024/02/14 00:43:58;;;;;;;8.73;5.30;;;;;;;9.07;50.99;97860.44;5029837;28;20211;-70
2024/02/14 00:46:24;;;;;;;6.57;4.47;;;;;;;9.20;50.02;97870.69;5036495;28;20423;-69
2024/02/14 00:48:49;;;;;;;7.77;4.50;;;;;;;9.26;50.75;97872.81;5038259;28;20908;-69
2024/02/14 00:51:15;;;;;;;8.13;4.80;;;;;;;9.42;50.35;97884.63;5031752;28;20555;-70
2024/02/14 00:53:40;;;;;;;8.43;4.90;;;;;;;9.39;50.60;97880.47;5029312;28;20789;-69
2024/02/14 00:56:06;;;;;;;9.63;6.43;;;;;;;9.27;50.64;97877.09;5037107;28;20295;-68
2024/02/14 00:58:32;;;;;;;10.67;6.47;;;;;;;9.30;50.67;97878.63;5038341;28;20186;-68
2024/02/14 01:00:57;;;;;;;10.00;5.73;;;;;;;9.41;50.79;97882.97;5030143;28;20955;-70
2024/02/14 01:03:23;;;;;;;9.23;4.90;;;;;;;9.50;51.05;97880.44;5030195;28;20203;-69
2024/02/14 01:05:48;;;;;;;12.63;5.10;;;;;;;9.58;50.34;97887.59;5031064;28;20211;-69
2024/02/14 01:08:14;;;;;;;9.50;5.33;;;;;;;9.57;51.57;97878.13;5039248;28;20211;-69
2024/02/14 01:10:40;;;;;;;12.13;5.43;;;;;;;9.61;51.77;97879.50;5031478;28;20179;-69
2024/02/14 01:13:06;;;;;;;8.80;4.10;;;;;;;9.66;51.84;97881.72;5029369;28;20821;-69
2024/02/14 01:15:31;;;;;;;7.30;4.60;;;;;;;9.73;51.74;97887.28;5028630;28;20215;-69
2024/02/14 01:17:57;;;;;;;8.13;4.40;;;;;;;9.78;51.94;97893.78;5034563;28;20649;-69
2024/02/14 01:20:22;;;;;;;6.30;4.20;;;;;;;9.84;52.04;97889.78;5029343;28;20267;-71
2024/02/14 01:22:49;;;;;;;8.27;5.13;;;;;;;9.79;52.78;97889.38;5029064;28;20720;-70
2024/02/14 01:25:14;;;;;;;25.10;7.10;;;;;;;9.55;52.81;97890.50;5028661;28;20640;-70
2024/02/14 01:27:41;;;;;;;10.20;6.23;;;;;;;9.55;52.64;97882.66;5028285;28;20243;-68
2024/02/14 01:30:07;;;;;;;12.00;6.90;;;;;;;9.65;52.45;97880.91;5029079;28;20237;-70
2024/02/14 01:32:32;;;;;;;14.40;6.30;;;;;;;9.68;52.71;97880.66;5028730;28;20410;-69
2024/02/14 01:34:59;;;;;;;9.67;6.80;;;;;;;9.75;52.90;97882.75;5028580;28;20468;-71
2024/02/14 01:37:24;;;;;;;11.63;6.20;;;;;;;9.70;53.24;97875.28;5040080;28;20195;-70
2024/02/14 01:39:50;;;;;;;10.23;5.37;;;;;;;9.80;53.46;97877.94;5028847;28;20942;-69
2024/02/14 01:42:16;;;;;;;8.37;4.23;;;;;;;9.77;53.70;97871.16;5040975;28;20186;-70
2024/02/14 01:44:43;;;;;;;10.07;4.43;;;;;;;9.76;53.93;97863.47;5037449;28;20543;-70
2024/02/14 01:47:09;;;;;;;6.27;4.10;;;;;;;9.82;53.72;97857.72;5030207;28;20272;-71
2024/02/14 01:49:36;;;;;;;9.03;4.17;;;;;;;9.88;53.88;97861.59;5029168;28;20410;-69
2024/02/14 01:52:03;;;;;;;6.90;3.80;;;;;;;9.87;53.66;97865.97;5031354;28;20438;-68
2024/02/14 01:54:29;;;;;;;6.70;3.60;;;;;;;9.87;53.73;97868.59;5032043;28;20889;-71
2024/02/14 01:56:56;;;;;;;9.10;3.90;;;;;;;9.95;53.26;97866.16;5030344;28;20432;-70
2024/02/14 01:59:21;;;;;;;6.57;3.40;;;;;;;9.95;53.79;97863.56;5028306;28;20529;-69
2024/02/14 02:01:47;;;;;;;6.53;3.47;;;;;;;10.01;53.42;97856.09;5028517;28;20427;-68
2024/02/14 02:04:12;;;;;;;7.00;3.33;;;;;;;9.97;53.46;97869.47;5028595;28;20207;-70
2024/02/14 02:06:40;;;;;;;10.37;3.60;;;;;;;9.94;53.94;97859.28;5028087;28;20233;-70
2024/02/14 02:09:07;;;;;;;5.63;3.30;;;;;;;9.97;54.01;97864.22;5028269;28;20210;-70
2024/02/14 02:11:44;;;;;;;5.53;3.60;;;;;;;9.98;54.01;97860.66;5031734;28;20512;-70
2024/02/14 02:14:12;;;;;;;7.03;3.37;;;;;;;10.01;53.82;97864.81;5028187;28;20465;-70
2024/02/14 02:16:38;;;;;;;7.47;3.17;;;;;;;10.05;53.99;97855.72;5032770;28;20467;-71
2024/02/14 02:19:04;;;;;;;10.27;3.63;;;;;;;10.05;53.95;97855.72;5035251;28;20512;-71
2024/02/14 02:21:30;;;;;;;8.97;3.40;;;;;;;10.06;54.01;97856.56;5027625;28;20211;-70
2024/02/14 02:23:55;;;;;;;6.33;3.60;;;;;;;10.10;53.67;97860.53;5030406;28;20540;-71
2024/02/14 02:26:21;;;;;;;6.90;3.37;;;;;;;10.15;53.70;97856.56;5033763;28;20593;-67
2024/02/14 02:28:46;;;;;;;10.10;4.03;;;;;;;10.27;53.57;97851.25;5031032;28;20571;-69
2024/02/14 02:31:12;;;;;;;6.30;3.83;;;;;;;10.25;53.23;97853.16;5036562;28;20207;-69
2024/02/14 02:33:37;;;;;;;4.40;3.87;;;;;;;10.26;53.12;97847.78;5033981;28;20258;-70
2024/02/14 02:36:03;;;;;;;7.07;3.87;;;;;;;10.22;52.97;97850.81;5035514;28;20908;-70
2024/02/14 02:38:28;;;;;;;5.70;3.63;;;;;;;10.29;52.94;97855.38;5038928;28;20271;-70
2024/02/14 02:40:54;;;;;;;6.30;3.67;;;;;;;10.26;52.67;97847.78;5041612;28;20616;-70
2024/02/14 02:43:20;;;;;;;11.17;3.80;;;;;;;10.20;52.63;97839.63;5041473;28;20227;-70
2024/02/14 02:45:46;;;;;;;4.80;3.57;;;;;;;10.17;53.02;97842.50;5033223;28;20203;-70
2024/02/14 02:48:11;;;;;;;7.77;4.13;;;;;;;10.16;52.94;97828.59;5037070;28;20802;-70
2024/02/14 02:50:37;;;;;;;5.30;4.00;;;;;;;10.12;52.69;97829.81;5034528;28;20184;-69
2024/02/14 02:53:02;;;;;;;5.90;3.67;;;;;;;10.14;52.98;97827.91;5034793;28;20282;-70
2024/02/14 02:55:27;;;;;;;5.83;3.70;;;;;;;10.15;53.08;97819.88;5036214;28;20208;-70
2024/02/14 02:57:53;;;;;;;6.80;3.87;;;;;;;10.20;52.62;97816.88;5028974;28;20230;-69
2024/02/14 03:00:21;;;;;;;5.43;4.27;;;;;;;10.17;52.61;97805.81;5028125;28;20190;-69
2024/02/14 03:02:46;;;;;;;7.67;4.00;;;;;;;10.07;52.46;97801.41;5027801;28;20184;-68
2024/02/14 03:05:17;;;;;;;4.60;3.40;;;;;;;10.07;52.46;97795.34;5027105;28;21251;-69
2024/02/14 03:07:47;;;;;;;12.90;4.73;;;;;;;10.14;52.48;97801.69;5027387;28;20198;-70
2024/02/14 03:10:14;;;;;;;7.77;3.80;;;;;;;10.06;53.04;97806.78;5037997;28;20445;-70
2024/02/14 03:12:40;;;;;;;10.37;3.90;;;;;;;9.97;52.67;97811.84;5035447;28;21015;-70
2024/02/14 03:15:05;;;;;;;5.73;3.80;;;;;;;10.07;52.52;97817.13;5025838;28;20549;-71
2024/02/14 03:17:31;;;;;;;6.40;3.70;;;;;;;10.07;52.71;97811.06;5027459;28;20798;-69
2024/02/14 03:19:57;;;;;;;13.63;4.13;;;;;;;9.98;52.64;97821.38;5027186;28;20188;-69
2024/02/14 03:22:22;;;;;;;6.30;4.23;;;;;;;9.99;52.78;97823.03;5032078;28;20180;-69
2024/02/14 03:24:48;;;;;;;6.70;4.20;;;;;;;10.10;52.46;97831.72;5027326;28;20212;-69
2024/02/14 03:27:13;;;;;;;5.87;3.40;;;;;;;10.12;52.64;97825.41;5034143;28;20199;-69
2024/02/14 03:29:39;;;;;;;10.33;4.10;;;;;;;10.18;52.37;97834.53;5027496;28;20186;-70
2024/02/14 03:32:08;;;;;;;6.23;3.97;;;;;;;10.24;52.05;97841.84;5034701;28;20274;-69
2024/02/14 03:34:35;;;;;;;8.13;4.10;;;;;;;10.10;52.29;97845.66;5025128;28;20248;-71
2024/02/14 03:37:02;;;;;;;10.80;4.20;;;;;;;10.10;52.01;97850.06;5031928;28;20452;-69
2024/02/14 03:39:28;;;;;;;6.53;3.30;;;;;;;10.05;52.09;97850.47;5039037;28;20506;-70
2024/02/14 03:41:54;;;;;;;5.83;4.40;;;;;;;10.15;52.25;97843.47;5037878;28;20434;-69
2024/02/14 03:44:19;;;;;;;7.23;3.53;;;;;;;10.23;52.06;97842.78;5023531;28;20462;-70
2024/02/14 03:46:47;;;;;;;4.40;3.60;;;;;;;10.18;52.12;97849.41;5030800;28;20176;-71
2024/02/14 03:49:13;;;;;;;8.47;4.00;;;;;;;10.18;52.07;97850.25;5032657;28;20274;-70
2024/02/14 03:51:38;;;;;;;5.40;3.60;;;;;;;10.18;52.46;97852.88;5041591;28;20423;-69
2024/02/14 03:54:05;;;;;;;5.07;3.87;;;;;;;10.19;52.14;97857.16;5029847;28;20243;-69
2024/02/14 03:56:32;;;;;;;4.43;3.50;;;;;;;10.22;52.24;97862.09;5030947;28;20528;-69
2024/02/14 03:58:58;;;;;;;5.70;3.77;;;;;;;10.18;52.36;97854.63;5030697;28;20423;-69
2024/02/14 04:01:24;;;;;;;5.40;3.80;;;;;;;10.17;52.14;97856.44;5036859;28;20431;-69
2024/02/14 04:03:49;;;;;;;8.03;3.83;;;;;;;10.13;52.34;97857.66;5029694;28;20458;-69
2024/02/14 04:06:15;;;;;;;6.90;3.67;;;;;;;10.05;52.96;97849.66;5012544;28;20843;-71
2024/02/14 04:08:40;;;;;;;5.10;3.97;;;;;;;9.98;53.49;97851.97;5037829;28;20179;-69
2024/02/14 04:11:06;;;;;;;7.27;4.00;;;;;;;10.06;53.07;97846.06;5035767;28;20600;-71
2024/02/14 04:13:31;;;;;;;5.80;3.40;;;;;;;10.06;53.09;97846.88;5030100;28;20638;-68
2024/02/14 04:15:57;;;;;;;5.10;3.63;;;;;;;10.04;52.78;97842.75;5029941;28;20242;-69
2024/02/14 04:18:22;;;;;;;7.60;3.63;;;;;;;10.08;52.27;97839.72;5029318;28;20183;-69
2024/02/14 04:20:48;;;;;;;6.13;3.30;;;;;;;10.02;52.25;97849.91;5030055;28;20245;-69
2024/02/14 04:23:13;;;;;;;4.50;3.40;;;;;;;10.07;52.21;97852.97;5034041;28;20215;-70
2024/02/14 04:25:40;;;;;;;4.77;3.50;;;;;;;10.03;52.00;97846.34;5029927;28;20439;-69
2024/02/14 04:28:05;;;;;;;6.70;3.40;;;;;;;10.01;51.52;97853.50;4996915;28;20191;-70
2024/02/14 04:30:31;;;;;;;6.40;3.53;;;;;;;9.97;51.54;97853.75;5029128;28;20434;-69
2024/02/14 04:32:56;;;;;;;7.17;3.40;;;;;;;9.99;51.57;97851.84;5037763;28;20707;-70
2024/02/14 04:35:22;;;;;;;7.10;3.40;;;;;;;10.06;51.87;97859.97;5037516;28;20285;-69
2024/02/14 04:37:49;;;;;;;5.50;3.60;;;;;;;10.12;51.61;97861.25;5028332;28;20234;-71
2024/02/14 04:40:14;;;;;;;7.00;3.50;;;;;;;10.12;51.32;97866.47;5028880;28;20678;-71
2024/02/14 04:42:40;;;;;;;3.80;2.90;;;;;;;10.03;51.47;97865.47;5031612;28;20454;-70
2024/02/14 04:45:07;;;;;;;5.70;3.30;;;;;;;9.98;51.63;97865.06;5028108;28;20238;-70
2024/02/14 04:47:32;;;;;;;7.17;3.90;;;;;;;10.04;51.45;97863.72;5033315;28;21002;-70
2024/02/14 04:49:58;;;;;;;6.43;3.60;;;;;;;10.14;51.79;97864.56;5027413;28;20525;-69
2024/02/14 04:52:23;;;;;;;6.73;3.63;;;;;;;10.19;51.43;97861.53;5031505;28;20193;-69
2024/02/14 04:54:49;;;;;;;6.30;3.53;;;;;;;10.19;51.44;97872.03;5028720;28;20200;-68
2024/02/14 04:57:15;;;;;;;5.30;3.83;;;;;;;10.22;50.89;97875.19;5031055;28;20291;-69
2024/02/14 04:59:40;;;;;;;7.90;3.80;;;;;;;10.21;51.31;97873.53;5033456;28;20229;-71
2024/02/14 05:02:06;;;;;;;5.77;3.70;;;;;;;10.23;51.01;97876.03;5028494;28;20454;-70
2024/02/14 05:04:34;;;;;;;4.47;3.20;;;;;;;10.22;50.92;97875.19;5028917;28;20215;-69
2024/02/14 05:07:00;;;;;;;5.43;3.80;;;;;;;10.22;50.72;97879.63;5037050;28;20437;-69
2024/02/14 05:09:26;;;;;;;4.30;3.10;;;;;;;10.22;50.89;97871.75;5036319;28;20418;-71
2024/02/14 05:11:51;;;;;;;5.77;3.17;;;;;;;10.24;50.54;97865.41;5027017;28;20202;-70
2024/02/14 05:14:16;;;;;;;8.17;3.57;;;;;;;10.19;50.99;97862.38;5028134;28;20323;-69
2024/02/14 05:16:42;;;;;;;8.10;5.50;;;;;;;10.17;50.90;97868.69;5028891;28;20215;-69
2024/02/14 05:19:07;;;;;;;7.43;3.70;;;;;;;10.21;51.48;97865.66;5026244;28;20218;-69
2024/02/14 05:21:33;;;;;;;4.63;3.53;;;;;;;10.15;51.10;97866.22;5030326;28;20180;-67
2024/02/14 05:23:58;;;;;;;4.43;3.00;;;;;;;10.03;51.35;97865.47;5030849;28;20218;-71
2024/02/14 05:26:24;;;;;;;7.17;3.60;;;;;;;10.14;51.47;97869.81;5028499;28;20657;-69
2024/02/14 05:28:49;;;;;;;6.53;3.50;;;;;;;10.14;51.15;97864.56;5030905;28;20194;-69
2024/02/14 05:31:15;;;;;;;7.70;3.63;;;;;;;10.05;50.87;97855.72;5027967;28;20188;-70
2024/02/14 05:33:40;;;;;;;5.70;3.47;;;;;;;10.06;51.10;97857.38;5028559;28;20649;-68
2024/02/14 05:36:06;;;;;;;3.77;2.97;;;;;;;10.12;51.06;97853.38;5028741;28;20383;-69
2024/02/14 05:38:33;;;;;;;7.10;3.60;;;;;;;10.28;51.54;97863.34;5034412;28;20213;-69
2024/02/14 05:40:59;;;;;;;10.83;5.30;;;;;;;10.36;51.26;97866.16;5034385;28;20821;-69
2024/02/14 05:43:24;;;;;;;7.33;3.97;;;;;;;10.23;50.50;97879.47;5028710;28;20512;-68
2024/02/14 05:45:49;;;;;;;3.53;2.90;;;;;;;10.11;51.03;97867.44;5028498;28;20211;-70
2024/02/14 05:48:15;;;;;;;5.87;3.30;;;;;;;10.18;51.08;97865.13;5024816;28;20278;-70
2024/02/14 05:50:40;;;;;;;5.73;3.53;;;;;;;10.19;50.85;97862.38;5027094;28;20262;-69
2024/02/14 05:53:06;;;;;;;6.67;3.63;;;;;;;10.18;50.96;97855.47;5030157;28;20210;-70
2024/02/14 05:55:32;;;;;;;3.93;3.13;;;;;;;10.13;50.70;97858.50;5028716;28;20710;-71
2024/02/14 05:57:59;;;;;;;7.70;3.40;;;;;;;10.09;50.96;97858.88;5027644;28;20188;-70
2024/02/14 06:00:25;;;;;;;10.03;3.17;;;;;;;10.20;50.80;97858.81;5028019;28;20518;-69
2024/02/14 06:02:50;;;;;;;6.63;2.77;;;;;;;10.23;50.78;97858.50;5028347;28;20430;-70
2024/02/14 06:05:16;;;;;;;10.67;3.60;;;;;;;10.18;50.71;97865.97;5026790;28;20237;-70
2024/02/14 06:07:42;;;;;;;8.93;3.00;;;;;;;10.16;50.64;97867.88;5027701;28;20275;-70
2024/02/14 06:10:08;;;;;;;5.07;3.30;;;;;;;10.13;50.74;97868.13;5032515;28;20222;-70
2024/02/14 06:12:34;;;;;;;5.97;3.10;;;;;;;10.06;51.21;97864.41;5026660;28;20180;-71
2024/02/14 06:15:03;;;;;;;4.73;2.90;;;;;;;10.06;50.93;97859.97;5027776;28;20825;-71
2024/02/14 06:17:29;;;;;;;3.80;3.10;;;;;;;10.08;51.07;97865.94;5028469;28;20984;-70
2024/02/14 06:19:54;;;;;;;4.43;3.00;;;;;;;10.01;50.75;97870.06;5028744;28;20528;-70
2024/02/14 06:22:21;;;;;;;5.90;3.20;;;;;;;10.08;51.03;97863.31;5028127;28;20184;-70
2024/02/14 06:24:48;;;;;;;2.90;2.53;;;;;;;10.01;51.30;97858.72;5032597;28;20457;-68
2024/02/14 06:27:14;;;;;;;6.67;2.90;;;;;;;10.12;50.82;97861.25;5027612;28;20423;-69
2024/02/14 06:29:42;;;;;;;4.87;2.77;;;;;;;10.11;51.16;97864.81;5027145;28;21042;-69
2024/02/14 06:32:07;;;;;;;9.00;2.83;;;;;;;10.20;50.89;97869.28;5032167;28;20664;-71
2024/02/14 06:34:33;;;;;;;4.53;2.73;;;;;;;10.32;50.88;97874.41;5026551;28;20434;-71
2024/02/14 06:36:58;;;;;;;9.07;3.73;;;;;;;10.35;50.87;97877.59;5025826;28;20187;-70
2024/02/14 06:39:24;;;;;;;5.50;2.77;;;;;;;10.43;50.61;97882.19;5027186;28;20291;-70
2024/02/14 06:41:49;;;;;;;6.63;2.57;;;;;;;10.49;50.19;97889.50;5025067;28;20191;-70
2024/02/14 06:44:15;;;;;;;4.60;2.63;;;;;;;10.50;49.92;97880.66;5034099;28;21081;-69
2024/02/14 06:46:41;;;;;;;4.67;2.70;;;;;;;10.50;50.09;97885.91;5031904;28;20190;-69
2024/02/14 06:49:07;;;;;;;2.90;2.23;;;;;;;10.50;50.06;97882.47;5034632;28;20184;-70
2024/02/14 06:51:33;;;;;;;5.33;2.50;;;;;;;10.53;49.83;97890.91;5029788;28;20949;-70
2024/02/14 06:53:58;;;;;;;4.60;3.37;;;;;;;10.53;49.71;97890.91;5031617;28;20189;-73
2024/02/14 06:56:24;;;;;;;3.67;3.10;;;;;;;10.58;49.91;97882.63;5028602;28;20713;-72
2024/02/14 06:58:59;;;;;;;4.50;2.73;;;;;;;10.63;49.83;97884.84;5031889;28;20310;-72
2024/02/14 07:01:25;;;;;;;4.83;3.23;;;;;;;10.72;49.58;97878.75;5026991;28;20614;-72
2024/02/14 07:03:51;;;;;;;4.80;2.70;;;;;;;10.79;49.48;97879.88;5028710;28;20486;-72
2024/02/14 07:06:17;;;;;;;5.13;2.27;;;;;;;10.77;49.15;97884.44;5025824;28;20192;-71
2024/02/14 07:08:43;;;;;;;3.43;2.40;;;;;;;10.79;49.36;97887.75;5027588;28;20509;-72
2024/02/14 07:11:08;;;;;;;2.13;1.93;;;;;;;10.86;49.30;97885.41;5037805;28;21022;-72
2024/02/14 07:13:33;;;;;;;4.80;2.57;;;;;;;10.91;49.39;97886.66;5034143;28;20195;-70
2024/02/14 07:15:59;;;;;;;3.03;2.20;;;;;;;10.99;49.22;97882.50;5036399;28;20219;-71
2024/02/14 07:18:24;;;;;;;3.50;2.30;;;;;;;11.05;49.00;97892.44;5034042;28;20179;-70
2024/02/14 07:20:50;;;;;;;4.37;2.60;;;;;;;11.11;48.90;97891.88;5038599;28;20262;-69
2024/02/14 07:23:16;;;;;;;4.27;2.33;;;;;;;11.16;48.99;97897.56;5035009;28;20180;-70
2024/02/14 07:25:41;;;;;;;4.37;2.80;;;;;;;11.12;48.80;97901.41;5037340;28;20446;-69
2024/02/14 07:28:07;;;;;;;3.40;2.00;;;;;;;11.20;48.92;97898.94;5034614;28;20289;-70
2024/02/14 07:30:33;;;;;;;7.17;2.47;;;;;;;11.24;48.67;97898.66;5034130;28;20184;-70
2024/02/14 07:32:58;;;;;;;4.37;2.50;;;;;;;11.25;49.00;97893.28;5036779;28;20214;-69
2024/02/14 07:35:23;;;;;;;4.30;2.43;;;;;;;11.33;48.92;97900.44;5029881;28;20242;-71
2024/02/14 07:37:49;;;;;;;7.73;2.57;;;;;;;11.38;48.85;97898.22;5038269;28;20214;-69
2024/02/14 07:40:14;;;;;;;4.63;2.30;;;;;;;11.42;49.19;97896.13;5033489;28;20238;-71
2024/02/14 07:42:40;;;;;;;2.20;1.70;;;;;;;11.43;48.86;97898.63;5029644;28;20257;-70
2024/02/14 07:45:05;;;;;;;4.80;1.77;;;;;;;11.42;49.00;97896.13;5030518;28;20207;-71
2024/02/14 07:47:31;;;;;;;2.37;1.80;;;;;;;11.47;48.86;97905.25;5029987;28;20192;-71
2024/02/14 07:49:57;;;;;;;4.70;1.87;;;;;;;11.53;48.65;97899.44;5030486;28;20199;-70
2024/02/14 07:52:22;;;;;;;2.70;2.00;;;;;;;11.64;48.63;97910.75;5029586;28;20216;-70
2024/02/14 07:54:55;;;;;;;1.97;1.53;;;;;;;11.69;48.75;97913.78;5032117;28;20470;-70
2024/02/14 07:57:24;;;;;;;4.73;1.50;;;;;;;11.76;48.66;97914.84;5029392;28;20183;-70
2024/02/14 07:59:51;;;;;;;4.10;1.87;;;;;;;11.84;48.46;97920.22;5033287;28;20430;-71
2024/02/14 08:02:17;;;;;;;2.10;1.73;;;;;;;11.94;48.27;97922.81;5029291;28;20422;-69
2024/02/14 08:04:42;;;;;;;5.30;1.57;;;;;;;12.00;48.25;97926.69;5029558;28;21217;-69
2024/02/14 08:07:09;;;;;;;6.00;1.87;;;;;;;12.02;47.95;97924.75;5030631;28;20517;-70
2024/02/14 08:09:34;;;;;;;3.10;1.43;;;;;;;12.07;47.82;97930.44;5029515;28;20283;-69
2024/02/14 08:12:00;;;;;;;3.23;1.87;;;;;;;12.11;47.55;97930.97;5030338;28;20422;-72
2024/02/14 08:14:26;;;;;;;6.00;2.03;;;;;;;12.13;47.46;97929.84;5030019;28;20211;-71
2024/02/14 08:16:51;;;;;;;3.67;1.70;;;;;;;12.21;48.03;97928.31;5030566;28;20570;-71
2024/02/14 08:19:18;;;;;;;3.77;1.67;;;;;;;12.22;47.88;97929.97;5028580;28;20186;-71
2024/02/14 08:21:44;;;;;;;2.57;1.70;;;;;;;12.30;47.46;97932.69;5030092;28;20666;-71
2024/02/14 08:24:09;;;;;;;3.30;1.83;;;;;;;12.35;47.39;97935.69;5029743;28;20931;-71
2024/02/14 08:26:35;;;;;;;3.30;1.67;;;;;;;12.47;47.63;97930.25;5031700;28;20565;-70
2024/02/14 08:29:00;;;;;;;3.77;2.10;;;;;;;12.60;48.50;97936.81;5030892;28;20649;-71
2024/02/14 08:31:26;;;;;;;6.00;1.77;;;;;;;12.73;48.21;97943.53;5036191;28;20259;-70
2024/02/14 08:33:51;;;;;;;2.17;1.40;;;;;;;12.74;47.25;97940.72;5029617;28;20866;-70
2024/02/14 08:36:18;;;;;;;4.50;1.50;;;;;;;12.75;46.88;97942.38;5029571;28;20787;-70
2024/02/14 08:38:44;;;;;;;3.87;2.17;;;;;;;12.88;47.03;97952.56;5045946;28;20562;-70
2024/02/14 08:41:09;;;;;;;4.60;2.03;;;;;;;12.92;46.76;97939.13;5029912;28;20438;-72
2024/02/14 08:43:35;;;;;;;6.00;2.70;;;;;;;13.00;46.35;97941.81;5028973;28;20215;-71
2024/02/14 08:46:00;;;;;;;4.77;2.40;;;;;;;13.11;46.62;97946.03;5035082;28;20841;-72
2024/02/14 08:48:27;;;;;;;4.83;2.77;;;;;;;13.23;46.56;97947.47;5029302;28;20183;-69
2024/02/14 08:50:53;;;;;;;3.10;1.93;;;;;;;13.26;46.12;97948.97;5034267;28;20187;-71
2024/02/14 08:53:18;;;;;;;3.20;1.90;;;;;;;13.26;46.01;97934.00;5037654;28;20438;-72
2024/02/14 08:55:44;;;;;;;5.13;2.57;;;;;;;13.30;45.82;97932.72;5029122;28;20450;-70
2024/02/14 08:58:09;;;;;;;2.60;1.80;;;;;;;13.37;45.77;97940.84;5029377;28;20641;-70
2024/02/14 09:00:40;;;;;;;5.70;2.00;;;;;;;13.43;45.84;97931.53;5038159;28;20623;-71
2024/02/14 09:03:06;;;;;;;2.30;1.80;;;;;;;13.46;45.83;97934.69;5028803;28;20183;-71
2024/02/14 09:05:32;;;;;;;3.80;1.83;;;;;;;13.50;45.89;97935.19;5029493;28;20550;-72
2024/02/14 09:07:57;;;;;;;9.73;3.47;;;;;;;13.48;45.87;97934.53;5035597;28;20191;-70
2024/02/14 09:10:23;;;;;;;3.77;2.37;;;;;;;13.53;45.73;97940.16;5029268;28;20187;-70
2024/02/14 09:12:48;;;;;;;6.23;2.10;;;;;;;13.52;45.77;97941.13;5028907;28;20275;-70
2024/02/14 09:15:14;;;;;;;5.90;2.00;;;;;;;13.52;46.00;97941.97;5028242;28;20630;-71
2024/02/14 09:17:40;;;;;;;4.87;1.90;;;;;;;13.56;45.91;97944.28;5027160;28;20203;-70
2024/02/14 09:20:09;;;;;;;2.70;1.70;;;;;;;13.57;45.79;97943.31;5028248;28;20435;-69
2024/02/14 09:22:37;;;;;;;2.57;1.90;;;;;;;13.43;46.28;97939.44;5030214;28;20558;-71
2024/02/14 09:25:06;;;;;;;3.50;1.90;;;;;;;13.49;46.13;97939.66;5036565;28;20492;-70
2024/02/14 09:27:32;;;;;;;4.10;1.70;;;;;;;13.49;45.82;97947.53;5036613;28;20430;-70
2024/02/14 09:29:58;;;;;;;4.13;1.67;;;;;;;13.54;46.01;97949.72;5037440;28;20453;-71
2024/02/14 09:32:23;;;;;;;2.03;1.80;;;;;;;13.58;45.84;97943.16;5037472;28;20527;-71
2024/02/14 09:34:49;;;;;;;2.50;1.57;;;;;;;13.65;45.47;97948.66;5036503;28;20212;-69
2024/02/14 09:37:14;;;;;;;3.70;1.73;;;;;;;13.64;45.57;97947.00;5028673;28;20275;-70
2024/02/14 09:39:43;;;;;;;3.30;1.50;;;;;;;13.78;45.79;97943.81;5036415;28;20184;-69
2024/02/14 09:42:10;;;;;;;2.97;1.80;;;;;;;13.88;45.41;97942.88;5037173;28;20672;-70
2024/02/14 09:44:36;;;;;;;1.50;1.40;;;;;;;13.91;45.43;97938.13;5027332;28;20505;-69
2024/02/14 09:47:02;;;;;;;2.40;1.70;;;;;;;13.92;45.47;97942.41;5027814;28;20990;-70
2024/02/14 09:49:28;;;;;;;4.43;1.80;;;;;;;13.81;45.76;97932.94;5030363;28;20535;-69
2024/02/14 09:51:55;;;;;;;2.40;1.70;;;;;;;14.11;45.71;97937.91;5028377;28;20472;-70
2024/02/14 09:54:21;;;;;;;2.70;1.70;;;;;;;14.33;45.58;97940.97;5029934;28;20448;-70
2024/02/14 09:56:59;;;;;;;1.90;1.80;;;;;;;14.46;45.39;97928.16;5027413;28;20419;-69
2024/02/14 09:59:24;;;;;;;5.63;1.70;;;;;;;14.50;45.49;97942.66;5033527;28;20553;-69
2024/02/14 10:01:51;;;;;;;3.43;1.97;;;;;;;14.70;45.21;97937.16;5025553;28;20441;-68
2024/02/14 10:04:18;;;;;;;8.03;2.00;;;;;;;14.89;45.19;97936.88;5033239;28;20206;-71
2024/02/14 10:06:44;;;;;;;2.50;1.63;;;;;;;15.30;45.08;97933.47;5027734;28;20414;-69
2024/02/14 10:09:10;;;;;;;3.13;1.40;;;;;;;15.62;44.83;97936.28;5027447;28;20425;-70
2024/02/14 10:11:36;;;;;;;5.20;1.47;;;;;;;15.74;44.40;97919.06;5026803;28;20179;-70
2024/02/14 10:14:03;;;;;;;3.00;1.40;;;;;;;15.75;44.48;97915.41;5027355;28;20675;-70
2024/02/14 10:16:29;;;;;;;7.23;1.53;;;;;;;15.79;44.63;97926.50;5029675;28;20414;-69
2024/02/14 10:18:55;;;;;;;4.43;1.80;;;;;;;15.65;44.83;97928.00;5027781;28;20427;-69
2024/02/14 10:21:21;;;;;;;3.33;1.80;;;;;;;15.83;45.11;97922.50;5023243;28;20188;-69
2024/02/14 10:23:49;;;;;;;1.90;1.43;;;;;;;16.08;44.59;97920.69;5028537;28;20476;-69
2024/02/14 10:26:15;;;;;;;2.23;1.73;;;;;;;16.17;44.19;97923.28;5028244;28;20447;-70
2024/02/14 10:28:42;;;;;;;3.63;1.50;;;;;;;16.51;43.73;97922.97;5028588;28;20421;-70
2024/02/14 10:31:09;;;;;;;1.77;1.30;;;;;;;16.47;43.90;97919.03;5024282;28;20949;-71
2024/02/14 10:33:34;;;;;;;4.20;1.37;;;;;;;16.97;42.90;97909.03;5027267;28;20762;-69
2024/02/14 10:36:02;;;;;;;1.53;1.30;;;;;;;17.16;42.79;97925.44;5035566;28;20446;-69
2024/02/14 10:38:31;;;;;;;2.30;1.37;;;;;;;17.45;42.19;97922.03;5030678;28;20171;-69
2024/02/14 10:40:58;;;;;;;3.13;1.23;;;;;;;17.48;41.66;97916.41;5030566;28;20557;-68
2024/02/14 10:43:24;;;;;;;2.50;1.37;;;;;;;17.58;42.05;97915.34;5037581;28;20425;-70
2024/02/14 10:45:52;;;;;;;7.40;1.13;;;;;;;17.57;42.09;97909.19;5028159;28;20465;-69
2024/02/14 10:48:18;;;;;;;1.77;1.40;;;;;;;17.62;42.08;97903.34;5022304;28;20431;-70
2024/02/14 10:50:44;;;;;;;2.33;1.40;;;;;;;17.60;42.34;97908.84;5023903;28;20445;-69
2024/02/14 10:53:15;;;;;;;2.10;1.20;;;;;;;17.52;42.60;97913.41;5027398;28;20648;-69
2024/02/14 10:55:45;;;;;;;4.13;1.20;;;;;;;17.72;42.56;97917.16;5028756;28;20453;-70
2024/02/14 10:58:11;;;;;;;1.43;1.10;;;;;;;17.65;42.64;97906.47;5045408;28;20845;-69
2024/02/14 11:00:37;;;;;;;1.73;1.30;;;;;;;17.90;42.34;97910.72;5027468;28;20426;-70
2024/02/14 11:03:03;;;;;;;2.70;1.40;;;;;;;17.83;42.70;97913.25;5026275;28;20811;-69
2024/02/14 11:05:29;;;;;;;1.73;1.40;;;;;;;17.80;42.84;97927.72;5026766;28;20458;-68
2024/02/14 11:07:55;;;;;;;3.43;1.20;;;;;;;17.37;43.34;97935.38;5029122;28;20520;-71
2024/02/14 11:10:21;;;;;;;1.80;1.20;;;;;;;17.59;43.51;97939.00;5028283;28;20180;-69
2024/02/14 11:12:49;;;;;;;1.53;1.30;;;;;;;17.40;44.10;97939.47;5027577;28;20182;-69
2024/02/14 11:15:22;;;;;;;5.63;1.13;;;;;;;17.38;43.97;97941.50;5027040;28;20453;-70
2024/02/14 11:17:54;;;;;;;2.17;1.10;;;;;;;17.37;44.46;97951.25;5026669;28;20441;-69
2024/02/14 11:20:22;;;;;;;5.10;1.20;;;;;;;17.08;44.78;97942.19;5025029;28;20437;-70
2024/02/14 11:22:55;;;;;;;1.20;1.10;;;;;;;16.77;45.30;97939.53;5027085;28;20430;-70
2024/02/14 11:25:31;;;;;;;1.33;1.00;;;;;;;16.52;46.29;97931.72;5008280;28;20568;-70
2024/02/14 11:28:02;;;;;;;1.87;1.10;;;;;;;16.52;46.22;97935.22;5026913;28;20437;-70